Sykeston, North Dakota
Current Conditions -  °F | °C
As of 8:35 AM on Sunday 23 Nov 2014 (Local Time) from K5H4 Reporting Station
Overcast Overcast  
Wind Chill: 20°   Ceiling: 5000
Heat Index: 32°   Visibility: 10mi
Dew Point: 25°   Wind: 21mph
Humidity: 75%   Direction: 290°WNW
Pressure: 29.41"   Gusts: 29mph
Location:  47.47°N, 99.4°W
Report Text: K5H4 231435Z AUTO 29018G25KT 10SM FEW025 OVC050 00/M04 A2941 RMK AO2
Loading
Personal Weather Stations






























Interactive Weather Map New forecast layout! Learn more

10-Day Weather Forecast

Advertisements
Track Severe Weather on mobile